Time,TemperatureF,DewpointF,PressureIn,WindDirection,WindDirectionDegrees,WindSpeedMPH,WindSpeedGustMPH,Humidity,HourlyPrecipIn,Conditions,Clouds,dailyrainin,SoftwareType,DateUTC
2013-04-05 00:00:00,46.1,31.7,30.01,ESE,109,4.0,6.0,57,0.00,,,0.00,VWS V14.01,2013-04-05 05:00:00,
2013-04-05 00:01:00,46.0,32.5,30.01,ENE,76,4.0,6.0,59,0.00,,,0.00,VWS V14.01,2013-04-05 05:01:00,
2013-04-05 00:06:00,46.2,32.2,30.01,ESE,116,2.0,7.0,58,0.00,,,0.00,VWS V14.01,2013-04-05 05:06:00,
2013-04-05 00:11:00,46.1,32.2,30.01,ESE,116,3.0,7.0,58,0.00,,,0.00,VWS V14.01,2013-04-05 05:11:00,
2013-04-05 00:15:00,45.8,31.5,30.00,ESE,116,4.0,7.0,57,0.00,,,0.00,VWS V14.01,2013-04-05 05:15:00,
2013-04-05 00:16:00,45.8,31.5,30.00,ESE,116,2.0,7.0,57,0.00,,,0.00,VWS V14.01,2013-04-05 05:16:00,
2013-04-05 00:21:00,45.7,32.2,30.00,ESE,116,2.0,5.0,59,0.00,,,0.00,VWS V14.01,2013-04-05 05:21:00,
2013-04-05 00:26:00,45.5,32.8,30.00,ESE,116,5.0,5.0,61,0.00,,,0.00,VWS V14.01,2013-04-05 05:26:00,
2013-04-05 00:30:00,45.2,33.0,30.00,ESE,116,1.0,5.0,62,0.00,,,0.00,VWS V14.01,2013-04-05 05:30:00,
2013-04-05 00:31:00,45.2,32.2,30.00,ESE,116,1.0,5.0,60,0.00,,,0.00,VWS V14.01,2013-04-05 05:31:00,
2013-04-05 00:36:00,45.1,32.1,30.00,ESE,116,1.0,2.0,60,0.00,,,0.00,VWS V14.01,2013-04-05 05:36:00,
2013-04-05 00:41:00,44.9,32.7,30.00,ESE,116,2.0,5.0,62,0.00,,,0.00,VWS V14.01,2013-04-05 05:41:00,
2013-04-05 00:45:00,44.9,32.7,30.00,SE,133,2.0,5.0,62,0.00,,,0.00,VWS V14.01,2013-04-05 05:45:00,
2013-04-05 00:47:00,44.9,32.7,30.00,SE,133,1.0,5.0,62,0.00,,,0.00,VWS V14.01,2013-04-05 05:47:00,
2013-04-05 00:52:00,45.1,32.9,30.00,SE,133,2.0,5.0,62,0.00,,,0.00,VWS V14.01,2013-04-05 05:52:00,
2013-04-05 00:57:00,44.8,33.0,30.00,SE,133,2.0,5.0,63,0.00,,,0.00,VWS V14.01,2013-04-05 05:57:00,
2013-04-05 01:00:00,44.1,32.3,30.00,SE,133,1.0,5.0,63,0.00,,,0.00,VWS V14.01,2013-04-05 06:00:00,
2013-04-05 01:02:00,44.2,32.4,30.00,SE,133,1.0,5.0,63,0.00,,,0.00,VWS V14.01,2013-04-05 06:02:00,
2013-04-05 01:07:00,43.8,32.4,30.00,SE,133,2.0,5.0,64,0.00,,,0.00,VWS V14.01,2013-04-05 06:07:00,
2013-04-05 01:12:00,44.1,32.7,30.00,SE,133,4.0,5.0,64,0.00,,,0.00,VWS V14.01,2013-04-05 06:12:00,
2013-04-05 01:15:00,44.5,32.3,29.99,SE,134,4.0,5.0,62,0.00,,,0.00,VWS V14.01,2013-04-05 06:15:00,
2013-04-05 01:17:00,44.3,32.1,29.99,SE,134,2.0,5.0,62,0.00,,,0.00,VWS V14.01,2013-04-05 06:17:00,
2013-04-05 01:22:00,44.5,33.1,29.99,SE,134,4.0,5.0,64,0.00,,,0.00,VWS V14.01,2013-04-05 06:22:00,
2013-04-05 01:27:00,44.9,32.3,29.99,SSE,155,3.0,7.0,61,0.00,,,0.00,VWS V14.01,2013-04-05 06:27:00,
2013-04-05 01:30:00,44.9,33.5,29.98,SSE,155,2.0,7.0,64,0.00,,,0.00,VWS V14.01,2013-04-05 06:30:00,
2013-04-05 01:32:00,44.9,33.5,29.98,SSE,155,3.0,7.0,64,0.00,,,0.00,VWS V14.01,2013-04-05 06:32:00,
2013-04-05 01:37:00,44.6,32.8,29.98,SSE,155,2.0,5.0,63,0.00,,,0.00,VWS V14.01,2013-04-05 06:37:00,
2013-04-05 01:42:00,44.1,33.1,29.98,SSE,155,3.0,5.0,65,0.00,,,0.00,VWS V14.01,2013-04-05 06:42:00,
2013-04-05 01:45:00,43.6,32.2,29.99,SSE,155,2.0,5.0,64,0.00,,,0.00,VWS V14.01,2013-04-05 06:45:00,
2013-04-05 01:47:00,43.6,32.2,29.99,SSE,155,1.0,5.0,64,0.00,,,0.00,VWS V14.01,2013-04-05 06:47:00,
2013-04-05 01:52:00,43.3,32.3,29.99,SSE,155,2.0,4.0,65,0.00,,,0.00,VWS V14.01,2013-04-05 06:52:00,
2013-04-05 01:57:00,43.3,32.3,29.99,SSE,157,2.0,5.0,65,0.00,,,0.00,VWS V14.01,2013-04-05 06:57:00,
2013-04-05 02:00:00,43.3,32.7,29.99,SSE,157,2.0,5.0,66,0.00,,,0.00,VWS V14.01,2013-04-05 07:00:00,
2013-04-05 02:02:00,43.3,32.7,29.99,SSE,157,1.0,5.0,66,0.00,,,0.00,VWS V14.01,2013-04-05 07:02:00,
2013-04-05 02:07:00,43.2,32.6,29.99,SSE,157,3.0,5.0,66,0.00,,,0.00,VWS V14.01,2013-04-05 07:07:00,
2013-04-05 02:12:00,43.2,32.6,29.99,SSE,157,3.0,5.0,66,0.00,,,0.00,VWS V14.01,2013-04-05 07:12:00,
2013-04-05 02:15:00,43.1,33.3,29.97,SSE,157,3.0,5.0,68,0.00,,,0.00,VWS V14.01,2013-04-05 07:15:00,
2013-04-05 02:17:00,43.1,33.3,29.97,SSE,157,3.0,5.0,68,0.00,,,0.00,VWS V14.01,2013-04-05 07:17:00,
2013-04-05 02:22:00,43.6,33.0,29.97,SSE,157,3.0,6.0,66,0.00,,,0.00,VWS V14.01,2013-04-05 07:22:00,
2013-04-05 02:27:00,43.9,33.3,29.97,SSE,157,2.0,6.0,66,0.00,,,0.00,VWS V14.01,2013-04-05 07:27:00,
2013-04-05 02:30:00,44.1,34.2,29.96,SSE,157,3.0,6.0,68,0.00,,,0.00,VWS V14.01,2013-04-05 07:30:00,
2013-04-05 02:32:00,44.1,34.2,29.96,SSE,157,3.0,6.0,68,0.00,,,0.00,VWS V14.01,2013-04-05 07:32:00,
2013-04-05 02:37:00,43.9,34.0,29.96,SSE,157,2.0,5.0,68,0.00,,,0.00,VWS V14.01,2013-04-05 07:37:00,
2013-04-05 02:42:00,43.6,33.8,29.96,SSE,157,3.0,5.0,68,0.00,,,0.00,VWS V14.01,2013-04-05 07:42:00,
2013-04-05 02:45:00,43.5,34.0,29.95,SSE,157,3.0,5.0,69,0.00,,,0.00,VWS V14.01,2013-04-05 07:45:00,
2013-04-05 02:47:00,43.5,34.0,29.95,SSE,157,3.0,5.0,69,0.00,,,0.00,VWS V14.01,2013-04-05 07:47:00,
2013-04-05 02:52:00,43.5,33.7,29.95,SSE,157,4.0,5.0,68,0.00,,,0.00,VWS V14.01,2013-04-05 07:52:00,
2013-04-05 02:57:00,43.5,33.7,29.95,SSE,157,3.0,5.0,68,0.00,,,0.00,VWS V14.01,2013-04-05 07:57:00,
2013-04-05 03:00:00,43.3,34.2,29.95,SSE,157,2.0,5.0,70,0.00,,,0.00,VWS V14.01,2013-04-05 08:00:00,
2013-04-05 03:02:00,43.3,34.2,29.95,SSE,157,2.0,5.0,70,0.00,,,0.00,VWS V14.01,2013-04-05 08:02:00,
2013-04-05 03:07:00,42.8,33.3,29.95,SSE,157,3.0,5.0,69,0.00,,,0.00,VWS V14.01,2013-04-05 08:07:00,
2013-04-05 03:12:00,41.9,32.5,29.95,SSE,157,1.0,5.0,69,0.00,,,0.00,VWS V14.01,2013-04-05 08:12:00,
2013-04-05 03:15:00,41.3,32.3,29.95,SSE,157,2.0,5.0,70,0.00,,,0.00,VWS V14.01,2013-04-05 08:15:00,
2013-04-05 03:17:00,41.3,32.3,29.95,SSE,157,2.0,5.0,70,0.00,,,0.00,VWS V14.01,2013-04-05 08:17:00,
2013-04-05 03:22:00,41.1,32.8,29.95,SSE,157,2.0,5.0,72,0.00,,,0.00,VWS V14.01,2013-04-05 08:22:00,
2013-04-05 03:27:00,41.1,33.1,29.95,SSE,157,2.0,5.0,73,0.00,,,0.00,VWS V14.01,2013-04-05 08:27:00,
2013-04-05 03:30:00,41.1,33.1,29.94,SSE,157,2.0,5.0,73,0.00,,,0.00,VWS V14.01,2013-04-05 08:30:00,
2013-04-05 03:32:00,41.1,33.1,29.94,SSE,157,2.0,5.0,73,0.00,,,0.00,VWS V14.01,2013-04-05 08:32:00,
2013-04-05 03:37:00,41.1,33.5,29.94,SSE,157,3.0,4.0,74,0.00,,,0.00,VWS V14.01,2013-04-05 08:37:00,
2013-04-05 03:42:00,41.1,33.5,29.94,SSE,157,1.0,5.0,74,0.00,,,0.00,VWS V14.01,2013-04-05 08:42:00,
2013-04-05 03:45:00,41.2,33.9,29.94,SSE,157,2.0,5.0,75,0.00,,,0.00,VWS V14.01,2013-04-05 08:45:00,
2013-04-05 03:47:00,41.2,33.9,29.94,SSE,157,2.0,5.0,75,0.00,,,0.00,VWS V14.01,2013-04-05 08:47:00,
2013-04-05 03:52:00,41.3,34.0,29.94,SSE,157,3.0,5.0,75,0.00,,,0.00,VWS V14.01,2013-04-05 08:52:00,
2013-04-05 03:57:00,41.5,34.5,29.94,SSE,157,3.0,5.0,76,0.00,,,0.00,VWS V14.01,2013-04-05 08:57:00,
2013-04-05 04:00:00,41.6,34.9,29.93,SSE,157,3.0,5.0,77,0.00,,,0.00,VWS V14.01,2013-04-05 09:00:00,
2013-04-05 04:02:00,41.6,34.9,29.93,SSE,157,3.0,5.0,77,0.00,,,0.00,VWS V14.01,2013-04-05 09:02:00,
2013-04-05 04:07:00,41.8,35.1,29.93,SSE,157,2.0,5.0,77,0.00,,,0.00,VWS V14.01,2013-04-05 09:07:00,
2013-04-05 04:12:00,41.6,34.9,29.93,SSE,157,1.0,5.0,77,0.00,,,0.00,VWS V14.01,2013-04-05 09:12:00,
2013-04-05 04:15:00,41.5,34.8,29.93,SSE,157,2.0,5.0,77,0.00,,,0.00,VWS V14.01,2013-04-05 09:15:00,
2013-04-05 04:17:00,41.5,34.5,29.93,SSE,157,1.0,2.0,76,0.00,,,0.00,VWS V14.01,2013-04-05 09:17:00,
2013-04-05 04:22:00,41.3,34.3,29.93,SSE,157,2.0,3.0,76,0.00,,,0.00,VWS V14.01,2013-04-05 09:22:00,
2013-04-05 04:27:00,41.3,35.0,29.93,SSE,157,2.0,3.0,78,0.00,,,0.00,VWS V14.01,2013-04-05 09:27:00,
2013-04-05 04:30:00,41.2,34.9,29.93,SSE,157,1.0,3.0,78,0.00,,,0.00,VWS V14.01,2013-04-05 09:30:00,
2013-04-05 04:32:00,41.2,34.9,29.93,SSE,157,1.0,1.0,78,0.00,,,0.00,VWS V14.01,2013-04-05 09:32:00,
2013-04-05 04:37:00,41.1,34.8,29.93,SSE,157,2.0,2.0,78,0.00,,,0.00,VWS V14.01,2013-04-05 09:37:00,
2013-04-05 04:42:00,40.9,34.9,29.93,SSE,157,2.0,3.0,79,0.00,,,0.00,VWS V14.01,2013-04-05 09:42:00,
2013-04-05 04:45:00,40.9,34.9,29.92,SSE,157,2.0,4.0,79,0.00,,,0.00,VWS V14.01,2013-04-05 09:45:00,
2013-04-05 04:47:00,40.9,34.9,29.92,SSE,157,2.0,2.0,79,0.00,,,0.00,VWS V14.01,2013-04-05 09:47:00,
2013-04-05 04:52:00,40.9,35.2,29.92,SSE,157,2.0,5.0,80,0.00,,,0.00,VWS V14.01,2013-04-05 09:52:00,
2013-04-05 04:57:00,40.9,35.2,29.92,SSE,157,2.0,5.0,80,0.00,,,0.00,VWS V14.01,2013-04-05 09:57:00,
2013-04-05 05:00:00,40.8,35.4,29.92,SSE,157,4.0,5.0,81,0.00,,,0.00,VWS V14.01,2013-04-05 10:00:00,
2013-04-05 05:02:00,40.8,35.4,29.92,SSE,157,4.0,4.0,81,0.00,,,0.00,VWS V14.01,2013-04-05 10:02:00,
2013-04-05 05:07:00,40.8,35.7,29.92,SSE,157,2.0,5.0,82,0.00,,,0.00,VWS V14.01,2013-04-05 10:07:00,
2013-04-05 05:12:00,40.6,35.2,29.92,SSE,157,3.0,5.0,81,0.00,,,0.00,VWS V14.01,2013-04-05 10:12:00,
2013-04-05 05:15:00,40.5,35.1,29.92,SSE,157,2.0,5.0,81,0.00,,,0.00,VWS V14.01,2013-04-05 10:15:00,
2013-04-05 05:17:00,40.5,35.1,29.92,SSE,157,1.0,2.0,81,0.00,,,0.00,VWS V14.01,2013-04-05 10:17:00,
2013-04-05 05:22:00,40.2,35.2,29.92,SSE,157,3.0,5.0,82,0.00,,,0.00,VWS V14.01,2013-04-05 10:22:00,
2013-04-05 05:28:00,40.2,35.2,29.92,SSE,157,3.0,5.0,82,0.00,,,0.00,VWS V14.01,2013-04-05 10:28:00,
2013-04-05 05:30:00,40.2,35.2,29.91,SSE,157,5.0,5.0,82,0.00,,,0.00,VWS V14.01,2013-04-05 10:30:00,
2013-04-05 05:33:00,40.2,35.2,29.91,SSE,157,2.0,5.0,82,0.00,,,0.00,VWS V14.01,2013-04-05 10:33:00,
2013-04-05 05:37:00,40.2,35.5,29.91,SSE,157,2.0,5.0,83,0.00,,,0.00,VWS V14.01,2013-04-05 10:37:00,
2013-04-05 05:43:00,40.1,35.4,29.91,SSE,157,2.0,5.0,83,0.00,,,0.00,VWS V14.01,2013-04-05 10:43:00,
2013-04-05 05:45:00,40.1,35.1,29.91,SSE,157,2.0,5.0,82,0.00,,,0.00,VWS V14.01,2013-04-05 10:45:00,
2013-04-05 05:48:00,40.1,35.4,29.91,SSE,157,3.0,3.0,83,0.00,,,0.00,VWS V14.01,2013-04-05 10:48:00,
2013-04-05 05:53:00,39.8,34.8,29.91,SSE,157,2.0,4.0,82,0.00,,,0.00,VWS V14.01,2013-04-05 10:53:00,
2013-04-05 05:58:00,39.5,34.8,29.91,SSE,157,1.0,4.0,83,0.00,,,0.00,VWS V14.01,2013-04-05 10:58:00,
2013-04-05 06:00:00,39.3,35.2,29.91,SSE,157,0.0,4.0,85,0.00,,,0.00,VWS V14.01,2013-04-05 11:00:00,
2013-04-05 06:03:00,39.3,34.3,29.91,SSE,157,0.0,1.0,82,0.00,,,0.00,VWS V14.01,2013-04-05 11:03:00,
2013-04-05 06:08:00,39.2,34.5,29.91,SSE,157,0.0,2.0,83,0.00,,,0.00,VWS V14.01,2013-04-05 11:08:00,
2013-04-05 06:13:00,38.9,34.5,29.91,SSE,157,2.0,5.0,84,0.00,,,0.00,VWS V14.01,2013-04-05 11:13:00,
2013-04-05 06:15:00,38.9,34.8,29.91,SSE,157,2.0,5.0,85,0.00,,,0.00,VWS V14.01,2013-04-05 11:15:00,
2013-04-05 06:18:00,38.9,34.8,29.91,SSE,157,1.0,2.0,85,0.00,,,0.00,VWS V14.01,2013-04-05 11:18:00,
2013-04-05 06:23:00,38.8,35.0,29.91,SSE,157,1.0,2.0,86,0.00,,,0.00,VWS V14.01,2013-04-05 11:23:00,
2013-04-05 06:28:00,38.6,35.1,29.91,SSE,157,3.0,3.0,87,0.00,,,0.00,VWS V14.01,2013-04-05 11:28:00,
2013-04-05 06:30:00,38.3,34.5,29.92,SSE,157,1.0,3.0,86,0.00,,,0.00,VWS V14.01,2013-04-05 11:30:00,
2013-04-05 06:33:00,38.3,34.5,29.92,SSE,157,2.0,2.0,86,0.00,,,0.00,VWS V14.01,2013-04-05 11:33:00,
2013-04-05 06:38:00,37.9,34.1,29.92,SSE,157,0.0,2.0,86,0.00,,,0.00,VWS V14.01,2013-04-05 11:38:00,
2013-04-05 06:43:00,37.5,34.0,29.92,SSE,157,2.0,3.0,87,0.00,,,0.00,VWS V14.01,2013-04-05 11:43:00,
2013-04-05 06:45:00,37.5,35.1,29.92,SSE,157,3.0,5.0,91,0.00,,,0.00,VWS V14.01,2013-04-05 11:45:00,
2013-04-05 06:48:00,37.5,35.4,29.92,SSE,157,4.0,5.0,92,0.00,,,0.00,VWS V14.01,2013-04-05 11:48:00,
2013-04-05 06:53:00,37.6,35.8,29.92,SSE,157,3.0,6.0,93,0.00,,,0.00,VWS V14.01,2013-04-05 11:53:00,
2013-04-05 06:58:00,37.8,35.4,29.92,SSE,157,5.0,6.0,91,0.00,,,0.00,VWS V14.01,2013-04-05 11:58:00,
2013-04-05 07:00:00,37.8,35.4,29.91,SSE,157,3.0,6.0,91,0.00,,,0.00,VWS V14.01,2013-04-05 12:00:00,
2013-04-05 07:03:00,37.8,35.4,29.91,SSE,157,5.0,5.0,91,0.00,,,0.00,VWS V14.01,2013-04-05 12:03:00,
2013-04-05 07:08:00,37.9,35.8,29.91,SSE,158,5.0,7.0,92,0.00,,,0.00,VWS V14.01,2013-04-05 12:08:00,
2013-04-05 07:13:00,38.3,36.5,29.91,SSE,168,5.0,7.0,93,0.00,,,0.00,VWS V14.01,2013-04-05 12:13:00,
2013-04-05 07:15:00,38.5,35.8,29.91,SSE,168,6.0,7.0,90,0.00,,,0.00,VWS V14.01,2013-04-05 12:15:00,
2013-04-05 07:18:00,38.5,36.1,29.91,SSE,168,3.0,6.0,91,0.00,,,0.00,VWS V14.01,2013-04-05 12:18:00,
2013-04-05 07:23:00,38.5,35.8,29.91,SSE,168,4.0,6.0,90,0.00,,,0.00,VWS V14.01,2013-04-05 12:23:00,
2013-04-05 07:28:00,38.2,36.1,29.91,SSE,168,4.0,6.0,92,0.00,,,0.00,VWS V14.01,2013-04-05 12:28:00,
2013-04-05 07:30:00,38.0,35.9,29.91,SSE,168,5.0,6.0,92,0.00,,,0.00,VWS V14.01,2013-04-05 12:30:00,
2013-04-05 07:33:00,38.0,35.9,29.91,SSE,168,6.0,6.0,92,0.00,,,0.00,VWS V14.01,2013-04-05 12:33:00,
2013-04-05 07:38:00,37.9,35.8,29.91,SSE,168,5.0,6.0,92,0.00,,,0.00,VWS V14.01,2013-04-05 12:38:00,
2013-04-05 07:43:00,37.9,36.1,29.91,SSE,168,2.0,7.0,93,0.00,,,0.00,VWS V14.01,2013-04-05 12:43:00,
2013-04-05 07:45:00,38.0,36.4,29.90,SSE,168,2.0,7.0,94,0.00,,,0.00,VWS V14.01,2013-04-05 12:45:00,
2013-04-05 07:48:00,38.0,35.9,29.90,SSE,168,2.0,3.0,92,0.00,,,0.00,VWS V14.01,2013-04-05 12:48:00,
2013-04-05 07:53:00,38.3,36.7,29.90,SSE,168,4.0,5.0,94,0.00,,,0.00,VWS V14.01,2013-04-05 12:53:00,
2013-04-05 07:58:00,38.6,37.6,29.90,SSE,168,5.0,6.0,96,0.00,,,0.00,VWS V14.01,2013-04-05 12:58:00,
2013-04-05 08:00:00,39.1,37.2,29.90,SSE,168,5.0,6.0,93,0.00,,,0.00,VWS V14.01,2013-04-05 13:00:00,
2013-04-05 08:03:00,39.1,37.2,29.90,SSE,168,4.0,6.0,93,0.00,,,0.00,VWS V14.01,2013-04-05 13:03:00,
2013-04-05 08:08:00,39.5,37.4,29.90,SSE,168,2.0,6.0,92,0.00,,,0.00,VWS V14.01,2013-04-05 13:08:00,
2013-04-05 08:13:00,39.8,37.4,29.90,SSE,165,3.0,6.0,91,0.00,,,0.00,VWS V14.01,2013-04-05 13:13:00,
2013-04-05 08:15:00,40.2,37.8,29.90,SSE,167,5.0,6.0,91,0.00,,,0.00,VWS V14.01,2013-04-05 13:15:00,
2013-04-05 08:18:00,40.3,38.2,29.90,SSE,167,3.0,6.0,92,0.00,,,0.00,VWS V14.01,2013-04-05 13:18:00,
2013-04-05 08:24:00,40.9,37.6,29.90,SSE,165,5.0,7.0,88,0.00,,,0.00,VWS V14.01,2013-04-05 13:24:00,
2013-04-05 08:29:00,41.5,37.9,29.90,South,171,5.0,8.0,87,0.00,,,0.00,VWS V14.01,2013-04-05 13:29:00,
2013-04-05 08:30:00,41.8,37.9,29.90,South,171,4.0,8.0,86,0.00,,,0.00,VWS V14.01,2013-04-05 13:30:00,
2013-04-05 08:34:00,41.9,38.3,29.90,South,172,6.0,6.0,87,0.00,,,0.00,VWS V14.01,2013-04-05 13:34:00,
2013-04-05 08:39:00,42.5,38.0,29.90,South,174,5.0,7.0,84,0.00,,,0.00,VWS V14.01,2013-04-05 13:39:00,
2013-04-05 08:44:00,43.3,39.4,29.90,South,188,3.0,12.0,86,0.00,,,0.00,VWS V14.01,2013-04-05 13:44:00,
2013-04-05 08:45:00,43.9,38.8,29.89,SSE,161,7.0,12.0,82,0.00,,,0.00,VWS V14.01,2013-04-05 13:45:00,
2013-04-05 08:49:00,44.2,39.1,29.89,SSE,155,5.0,10.0,82,0.00,,,0.00,VWS V14.01,2013-04-05 13:49:00,
2013-04-05 08:54:00,44.9,38.5,29.89,SSW,196,12.0,14.0,78,0.00,,,0.00,VWS V14.01,2013-04-05 13:54:00,
2013-04-05 08:59:00,45.4,38.6,29.89,South,174,7.0,16.0,77,0.00,,,0.00,VWS V14.01,2013-04-05 13:59:00,
2013-04-05 09:00:00,45.5,37.7,29.88,South,171,7.0,16.0,74,0.00,,,0.00,VWS V14.01,2013-04-05 14:00:00,
2013-04-05 09:04:00,45.8,38.0,29.88,South,181,5.0,8.0,74,0.00,,,0.00,VWS V14.01,2013-04-05 14:04:00,
2013-04-05 09:09:00,46.2,37.7,29.88,SSW,195,6.0,12.0,72,0.00,,,0.00,VWS V14.01,2013-04-05 14:09:00,
2013-04-05 09:14:00,46.8,37.9,29.88,SSW,192,8.0,14.0,71,0.00,,,0.00,VWS V14.01,2013-04-05 14:14:00,
2013-04-05 09:15:00,47.1,38.2,29.88,South,184,10.0,14.0,71,0.00,,,0.00,VWS V14.01,2013-04-05 14:15:00,
2013-04-05 09:19:00,47.4,37.4,29.88,SSE,165,7.0,16.0,68,0.00,,,0.00,VWS V14.01,2013-04-05 14:19:00,
2013-04-05 09:24:00,47.9,37.5,29.88,SSE,160,8.0,16.0,67,0.00,,,0.00,VWS V14.01,2013-04-05 14:24:00,
2013-04-05 09:29:00,48.3,36.7,29.88,South,182,6.0,16.0,64,0.00,,,0.00,VWS V14.01,2013-04-05 14:29:00,
2013-04-05 09:30:00,48.3,37.1,29.87,South,184,7.0,16.0,65,0.00,,,0.00,VWS V14.01,2013-04-05 14:30:00,
2013-04-05 09:35:00,48.6,37.8,29.87,SSW,206,11.0,16.0,66,0.00,,,0.00,VWS V14.01,2013-04-05 14:35:00,
2013-04-05 09:40:00,49.1,37.1,29.87,South,189,8.0,16.0,63,0.00,,,0.00,VWS V14.01,2013-04-05 14:40:00,
2013-04-05 09:45:00,49.8,37.3,29.87,South,181,5.0,17.0,62,0.00,,,0.00,VWS V14.01,2013-04-05 14:45:00,
2013-04-05 09:50:00,50.4,37.9,29.85,SSW,196,7.0,14.0,62,0.00,,,0.00,VWS V14.01,2013-04-05 14:50:00,
2013-04-05 09:55:00,51.1,37.3,29.85,SSW,205,13.0,17.0,59,0.00,,,0.00,VWS V14.01,2013-04-05 14:55:00,
2013-04-05 10:00:00,51.9,37.2,29.85,SSE,167,7.0,17.0,57,0.00,,,0.00,VWS V14.01,2013-04-05 15:00:00,
2013-04-05 10:05:00,52.5,36.3,29.84,SSE,158,7.0,16.0,54,0.00,,,0.00,VWS V14.01,2013-04-05 15:05:00,
2013-04-05 10:10:00,52.8,36.2,29.84,South,182,11.0,20.0,53,0.00,,,0.00,VWS V14.01,2013-04-05 15:10:00,
2013-04-05 10:15:00,53.3,36.6,29.84,SSW,199,17.0,20.0,53,0.00,,,0.00,VWS V14.01,2013-04-05 15:15:00,
2013-04-05 10:20:00,53.9,36.7,29.83,South,188,8.0,20.0,52,0.00,,,0.00,VWS V14.01,2013-04-05 15:20:00,
2013-04-05 10:25:00,54.1,37.4,29.83,SSW,198,17.0,21.0,53,0.00,,,0.00,VWS V14.01,2013-04-05 15:25:00,
2013-04-05 10:30:00,54.7,35.9,29.83,SSW,205,14.0,21.0,49,0.00,,,0.00,VWS V14.01,2013-04-05 15:30:00,
2013-04-05 10:35:00,55.0,36.7,29.82,SSW,195,16.0,21.0,50,0.00,,,0.00,VWS V14.01,2013-04-05 15:35:00,
2013-04-05 10:40:00,55.7,36.8,29.82,SSW,196,17.0,21.0,49,0.00,,,0.00,VWS V14.01,2013-04-05 15:40:00,
2013-04-05 10:45:00,56.2,36.3,29.82,SSW,192,13.0,21.0,47,0.00,,,0.00,VWS V14.01,2013-04-05 15:45:00,
2013-04-05 10:50:00,56.7,35.6,29.81,SSW,199,21.0,21.0,45,0.00,,,0.00,VWS V14.01,2013-04-05 15:50:00,
2013-04-05 10:55:00,57.2,36.1,29.81,South,185,13.0,22.0,45,0.00,,,0.00,VWS V14.01,2013-04-05 15:55:00,
2013-04-05 11:00:00,57.3,36.2,29.81,SSW,192,18.0,25.0,45,0.00,,,0.00,VWS V14.01,2013-04-05 16:00:00,
2013-04-05 11:05:00,58.0,36.2,29.80,SSE,161,10.0,24.0,44,0.00,,,0.00,VWS V14.01,2013-04-05 16:05:00,
2013-04-05 11:10:00,58.4,36.0,29.80,South,186,14.0,24.0,43,0.00,,,0.00,VWS V14.01,2013-04-05 16:10:00,
2013-04-05 11:15:00,59.2,34.3,29.80,SSW,202,22.0,30.0,39,0.00,,,0.00,VWS V14.01,2013-04-05 16:15:00,
2013-04-05 11:20:00,60.1,35.1,29.80,South,182,15.0,22.0,39,0.00,,,0.00,VWS V14.01,2013-04-05 16:20:00,
2013-04-05 11:25:00,60.9,32.4,29.80,SSW,198,19.0,32.0,34,0.00,,,0.00,VWS V14.01,2013-04-05 16:25:00,
2013-04-05 11:30:00,61.5,34.3,29.80,SSW,198,22.0,32.0,36,0.00,,,0.00,VWS V14.01,2013-04-05 16:30:00,
2013-04-05 11:35:00,62.0,32.6,29.78,SSW,193,31.0,31.0,33,0.00,,,0.00,VWS V14.01,2013-04-05 16:35:00,
2013-04-05 11:41:00,62.1,32.7,29.78,SSE,168,16.0,32.0,33,0.00,,,0.00,VWS V14.01,2013-04-05 16:41:00,
2013-04-05 11:45:00,62.4,32.9,29.78,SSW,200,24.0,32.0,33,0.00,,,0.00,VWS V14.01,2013-04-05 16:45:00,
2013-04-05 11:46:00,62.4,32.9,29.78,South,185,27.0,32.0,33,0.00,,,0.00,VWS V14.01,2013-04-05 16:46:00,
2013-04-05 11:51:00,62.7,34.0,29.78,South,184,22.0,27.0,34,0.00,,,0.00,VWS V14.01,2013-04-05 16:51:00,
2013-04-05 11:56:00,62.9,33.4,29.78,South,181,18.0,29.0,33,0.00,,,0.00,VWS V14.01,2013-04-05 16:56:00,
2013-04-05 12:00:00,63.1,32.8,29.77,SSW,198,18.0,29.0,32,0.00,,,0.00,VWS V14.01,2013-04-05 17:00:00,
2013-04-05 12:01:00,62.9,31.8,29.78,SSW,203,19.0,29.0,31,0.00,,,0.00,VWS V14.01,2013-04-05 17:01:00,
2013-04-05 12:06:00,63.7,31.7,29.77,SSE,168,9.0,26.0,30,0.00,,,0.00,VWS V14.01,2013-04-05 17:06:00,
2013-04-05 12:11:00,64.5,31.6,29.77,South,174,12.0,26.0,29,0.00,,,0.00,VWS V14.01,2013-04-05 17:11:00,
2013-04-05 12:15:00,65.5,33.3,29.76,SSE,165,17.0,30.0,30,0.00,,,0.00,VWS V14.01,2013-04-05 17:15:00,
2013-04-05 12:16:00,65.2,30.4,29.77,South,172,14.0,30.0,27,0.00,,,0.00,VWS V14.01,2013-04-05 17:16:00,
2013-04-05 12:21:00,65.3,33.1,29.76,SSW,193,21.0,24.0,30,0.00,,,0.00,VWS V14.01,2013-04-05 17:21:00,
2013-04-05 12:26:00,65.6,33.4,29.76,SSE,168,10.0,24.0,30,0.00,,,0.00,VWS V14.01,2013-04-05 17:26:00,
2013-04-05 12:30:00,66.1,32.1,29.74,SSW,205,20.0,26.0,28,0.00,,,0.00,VWS V14.01,2013-04-05 17:30:00,
2013-04-05 12:31:00,66.1,32.1,29.76,South,189,13.0,26.0,28,0.00,,,0.00,VWS V14.01,2013-04-05 17:31:00,
2013-04-05 12:36:00,66.0,32.0,29.74,South,188,13.0,22.0,28,0.00,,,0.00,VWS V14.01,2013-04-05 17:36:00,
2013-04-05 12:41:00,66.0,32.0,29.74,SSW,205,19.0,28.0,28,0.00,,,0.00,VWS V14.01,2013-04-05 17:41:00,
2013-04-05 12:45:00,67.1,31.1,29.73,SSW,199,24.0,28.0,26,0.00,,,0.00,VWS V14.01,2013-04-05 17:45:00,
2013-04-05 12:46:00,66.8,30.8,29.74,SSE,164,10.0,28.0,26,0.00,,,0.00,VWS V14.01,2013-04-05 17:46:00,
2013-04-05 12:51:00,67.4,31.4,29.73,South,188,9.0,28.0,26,0.00,,,0.00,VWS V14.01,2013-04-05 17:51:00,
2013-04-05 12:56:00,67.4,31.4,29.73,SSW,200,21.0,29.0,26,0.00,,,0.00,VWS V14.01,2013-04-05 17:56:00,
2013-04-05 13:00:00,67.3,29.3,29.72,South,181,18.0,29.0,24,0.00,,,0.00,VWS V14.01,2013-04-05 18:00:00,
2013-04-05 13:01:00,67.4,30.4,29.73,South,185,20.0,29.0,25,0.00,,,0.00,VWS V14.01,2013-04-05 18:01:00,
2013-04-05 13:06:00,67.4,29.4,29.72,South,176,19.0,19.0,24,0.00,,,0.00,VWS V14.01,2013-04-05 18:06:00,
2013-04-05 13:11:00,67.9,28.8,29.72,SSW,205,12.0,26.0,23,0.00,,,0.00,VWS V14.01,2013-04-05 18:11:00,
2013-04-05 13:15:00,68.1,30.0,29.70,South,189,19.0,26.0,24,0.00,,,0.00,VWS V14.01,2013-04-05 18:15:00,
2013-04-05 13:16:00,68.1,28.9,29.72,SSW,195,16.0,26.0,23,0.00,,,0.00,VWS V14.01,2013-04-05 18:16:00,
2013-04-05 13:21:00,67.8,29.7,29.70,South,181,11.0,26.0,24,0.00,,,0.00,VWS V14.01,2013-04-05 18:21:00,
2013-04-05 13:26:00,67.8,28.7,29.70,South,181,17.0,29.0,23,0.00,,,0.00,VWS V14.01,2013-04-05 18:26:00,
2013-04-05 13:30:00,68.8,29.5,29.68,South,175,17.0,29.0,23,0.00,,,0.00,VWS V14.01,2013-04-05 18:30:00,
2013-04-05 13:31:00,68.6,30.4,29.70,South,184,18.0,29.0,24,0.00,,,0.00,VWS V14.01,2013-04-05 18:31:00,
2013-04-05 13:36:00,67.9,29.8,29.68,South,186,17.0,30.0,24,0.00,,,0.00,VWS V14.01,2013-04-05 18:36:00,
2013-04-05 13:41:00,67.4,30.4,29.68,South,186,11.0,30.0,25,0.00,,,0.00,VWS V14.01,2013-04-05 18:41:00,
2013-04-05 13:45:00,68.6,31.4,29.68,SSW,198,31.0,32.0,25,0.00,,,0.00,VWS V14.01,2013-04-05 18:45:00,
2013-04-05 13:46:00,68.3,30.1,29.68,South,191,16.0,30.0,24,0.00,,,0.00,VWS V14.01,2013-04-05 18:46:00,
2013-04-05 13:51:00,68.8,30.6,29.68,South,174,10.0,31.0,24,0.00,,,0.00,VWS V14.01,2013-04-05 18:51:00,
2013-04-05 13:56:00,69.1,30.8,29.68,South,181,12.0,31.0,24,0.00,,,0.00,VWS V14.01,2013-04-05 18:56:00,
2013-04-05 14:00:00,69.4,30.0,29.66,South,188,21.0,31.0,23,0.00,,,0.00,VWS V14.01,2013-04-05 19:00:00,
2013-04-05 14:01:00,69.6,30.2,29.66,South,184,14.0,31.0,23,0.00,,,0.00,VWS V14.01,2013-04-05 19:01:00,
2013-04-05 14:06:00,70.1,29.5,29.66,SSE,168,12.0,33.0,22,0.00,,,0.00,VWS V14.01,2013-04-05 19:06:00,
2013-04-05 14:12:00,70.4,30.9,29.66,SSW,200,21.0,33.0,23,0.00,,,0.00,VWS V14.01,2013-04-05 19:12:00,
2013-04-05 14:15:00,70.1,30.6,29.65,South,179,10.0,33.0,23,0.00,,,0.00,VWS V14.01,2013-04-05 19:15:00,
2013-04-05 14:17:00,70.3,30.8,29.65,SSW,200,17.0,33.0,23,0.00,,,0.00,VWS V14.01,2013-04-05 19:17:00,
2013-04-05 14:22:00,70.1,30.6,29.65,South,178,13.0,31.0,23,0.00,,,0.00,VWS V14.01,2013-04-05 19:22:00,
2013-04-05 14:27:00,70.4,32.9,29.65,South,175,17.0,33.0,25,0.00,,,0.00,VWS V14.01,2013-04-05 19:27:00,
2013-04-05 14:30:00,70.8,32.3,29.63,South,169,14.0,33.0,24,0.00,,,0.00,VWS V14.01,2013-04-05 19:30:00,
2013-04-05 14:32:00,70.8,32.3,29.63,South,184,12.0,33.0,24,0.00,,,0.00,VWS V14.01,2013-04-05 19:32:00,
2013-04-05 14:37:00,71.3,31.6,29.63,South,191,26.0,33.0,23,0.00,,,0.00,VWS V14.01,2013-04-05 19:37:00,
2013-04-05 14:42:00,71.8,30.9,29.63,SSE,162,13.0,33.0,22,0.00,,,0.00,VWS V14.01,2013-04-05 19:42:00,
2013-04-05 14:45:00,72.3,30.2,29.62,South,188,19.0,33.0,21,0.00,,,0.00,VWS V14.01,2013-04-05 19:45:00,
2013-04-05 14:47:00,72.3,30.2,29.62,SSW,196,17.0,33.0,21,0.00,,,0.00,VWS V14.01,2013-04-05 19:47:00,
2013-04-05 14:52:00,72.3,32.5,29.62,SW,217,19.0,32.0,23,0.00,,,0.00,VWS V14.01,2013-04-05 19:52:00,
2013-04-05 14:57:00,72.3,26.5,29.62,SSW,212,18.0,32.0,18,0.00,,,0.00,VWS V14.01,2013-04-05 19:57:00,
2013-04-05 15:00:00,72.3,27.8,29.61,SSW,203,19.0,32.0,19,0.00,,,0.00,VWS V14.01,2013-04-05 20:00:00,
2013-04-05 15:02:00,72.5,27.9,29.61,SSW,196,17.0,32.0,19,0.00,,,0.00,VWS V14.01,2013-04-05 20:02:00,
2013-04-05 15:07:00,72.3,29.0,29.61,South,179,20.0,30.0,20,0.00,,,0.00,VWS V14.01,2013-04-05 20:07:00,
2013-04-05 15:12:00,72.3,26.5,29.61,SSW,200,24.0,31.0,18,0.00,,,0.00,VWS V14.01,2013-04-05 20:12:00,
2013-04-05 15:15:00,72.7,28.1,29.60,SSW,199,21.0,31.0,19,0.00,,,0.00,VWS V14.01,2013-04-05 20:15:00,
2013-04-05 15:17:00,72.7,28.1,29.60,SSW,198,19.0,21.0,19,0.00,,,0.00,VWS V14.01,2013-04-05 20:17:00,
2013-04-05 15:22:00,72.8,29.4,29.60,South,185,16.0,27.0,20,0.00,,,0.00,VWS V14.01,2013-04-05 20:22:00,
2013-04-05 15:27:00,72.8,28.2,29.60,South,189,11.0,28.0,19,0.00,,,0.00,VWS V14.01,2013-04-05 20:27:00,
2013-04-05 15:30:00,73.0,27.0,29.59,South,191,24.0,28.0,18,0.00,,,0.00,VWS V14.01,2013-04-05 20:30:00,
2013-04-05 15:32:00,73.0,27.0,29.59,South,191,24.0,28.0,18,0.00,,,0.00,VWS V14.01,2013-04-05 20:32:00,
2013-04-05 15:37:00,73.3,27.3,29.59,South,179,13.0,29.0,18,0.00,,,0.00,VWS V14.01,2013-04-05 20:37:00,
2013-04-05 15:42:00,73.5,27.4,29.59,South,181,12.0,29.0,18,0.00,,,0.00,VWS V14.01,2013-04-05 20:42:00,
2013-04-05 15:45:00,74.0,29.2,29.57,South,186,17.0,30.0,19,0.00,,,0.00,VWS V14.01,2013-04-05 20:45:00,
2013-04-05 15:47:00,74.0,29.2,29.57,SSW,195,17.0,17.0,19,0.00,,,0.00,VWS V14.01,2013-04-05 20:47:00,
2013-04-05 15:52:00,74.4,28.2,29.57,SSW,195,22.0,30.0,18,0.00,,,0.00,VWS V14.01,2013-04-05 20:52:00,
2013-04-05 15:57:00,74.7,28.4,29.57,SSW,196,21.0,35.0,18,0.00,,,0.00,VWS V14.01,2013-04-05 20:57:00,
2013-04-05 16:00:00,74.9,28.6,29.56,SSW,192,19.0,35.0,18,0.00,,,0.00,VWS V14.01,2013-04-05 21:00:00,
2013-04-05 16:02:00,74.9,28.6,29.56,SSW,203,20.0,22.0,18,0.00,,,0.00,VWS V14.01,2013-04-05 21:02:00,
2013-04-05 16:07:00,75.1,31.3,29.56,SSW,208,28.0,28.0,20,0.00,,,0.00,VWS V14.01,2013-04-05 21:07:00,
2013-04-05 16:12:00,74.9,31.2,29.56,South,189,14.0,32.0,20,0.00,,,0.00,VWS V14.01,2013-04-05 21:12:00,
2013-04-05 16:15:00,75.6,30.5,29.54,SSW,206,31.0,32.0,19,0.00,,,0.00,VWS V14.01,2013-04-05 21:15:00,
2013-04-05 16:17:00,75.6,30.5,29.54,South,191,17.0,31.0,19,0.00,,,0.00,VWS V14.01,2013-04-05 21:17:00,
2013-04-05 16:22:00,76.0,33.3,29.54,South,185,17.0,31.0,21,0.00,,,0.00,VWS V14.01,2013-04-05 21:22:00,
2013-04-05 16:27:00,76.1,30.9,29.54,SSW,202,30.0,31.0,19,0.00,,,0.00,VWS V14.01,2013-04-05 21:27:00,
2013-04-05 16:30:00,75.3,30.2,29.53,South,185,22.0,36.0,19,0.00,,,0.00,VWS V14.01,2013-04-05 21:30:00,
2013-04-05 16:32:00,75.3,30.2,29.53,South,186,28.0,31.0,19,0.00,,,0.00,VWS V14.01,2013-04-05 21:32:00,
2013-04-05 16:37:00,75.1,28.7,29.53,SSW,202,24.0,31.0,18,0.00,,,0.00,VWS V14.01,2013-04-05 21:37:00,
2013-04-05 16:42:00,74.4,30.8,29.53,South,179,19.0,31.0,20,0.00,,,0.00,VWS V14.01,2013-04-05 21:42:00,
2013-04-05 16:45:00,74.0,30.4,29.54,SSW,198,21.0,31.0,20,0.00,,,0.00,VWS V14.01,2013-04-05 21:45:00,
2013-04-05 16:47:00,74.0,30.4,29.54,SSW,209,24.0,25.0,20,0.00,,,0.00,VWS V14.01,2013-04-05 21:47:00,
2013-04-05 16:53:00,74.4,29.5,29.54,SSW,196,14.0,28.0,19,0.00,,,0.00,VWS V14.01,2013-04-05 21:53:00,
2013-04-05 16:58:00,75.1,28.7,29.54,SSW,200,19.0,34.0,18,0.00,,,0.00,VWS V14.01,2013-04-05 21:58:00,
2013-04-05 17:00:00,75.8,30.6,29.53,South,188,14.0,34.0,19,0.00,,,0.00,VWS V14.01,2013-04-05 22:00:00,
2013-04-05 17:03:00,75.8,30.6,29.53,SSW,200,19.0,21.0,19,0.00,,,0.00,VWS V14.01,2013-04-05 22:03:00,
2013-04-05 17:08:00,75.6,29.1,29.53,SSW,200,22.0,33.0,18,0.00,,,0.00,VWS V14.01,2013-04-05 22:08:00,
2013-04-05 17:13:00,75.1,28.7,29.53,SSW,209,17.0,33.0,18,0.00,,,0.00,VWS V14.01,2013-04-05 22:13:00,
2013-04-05 17:15:00,74.9,29.9,29.53,SSW,202,22.0,33.0,19,0.00,,,0.00,VWS V14.01,2013-04-05 22:15:00,
2013-04-05 17:18:00,74.9,29.9,29.53,SSW,199,19.0,22.0,19,0.00,,,0.00,VWS V14.01,2013-04-05 22:18:00,
2013-04-05 17:23:00,74.6,29.7,29.53,SSW,213,28.0,30.0,19,0.00,,,0.00,VWS V14.01,2013-04-05 22:23:00,
2013-04-05 17:28:00,74.2,29.3,29.53,SW,217,19.0,33.0,19,0.00,,,0.00,VWS V14.01,2013-04-05 22:28:00,
2013-04-05 17:30:00,74.2,29.3,29.53,SSW,193,14.0,33.0,19,0.00,,,0.00,VWS V14.01,2013-04-05 22:30:00,
2013-04-05 17:33:00,74.4,29.5,29.53,SSW,198,24.0,24.0,19,0.00,,,0.00,VWS V14.01,2013-04-05 22:33:00,
2013-04-05 17:38:00,74.0,29.2,29.53,SSW,199,26.0,30.0,19,0.00,,,0.00,VWS V14.01,2013-04-05 22:38:00,
2013-04-05 17:43:00,74.2,29.3,29.53,SW,220,20.0,30.0,19,0.00,,,0.00,VWS V14.01,2013-04-05 22:43:00,
2013-04-05 17:45:00,74.4,29.5,29.53,South,191,12.0,30.0,19,0.00,,,0.00,VWS V14.01,2013-04-05 22:45:00,
2013-04-05 17:48:00,74.4,29.5,29.53,SSW,193,21.0,26.0,19,0.00,,,0.00,VWS V14.01,2013-04-05 22:48:00,
2013-04-05 17:53:00,74.0,29.2,29.53,SSW,192,26.0,32.0,19,0.00,,,0.00,VWS V14.01,2013-04-05 22:53:00,
2013-04-05 17:58:00,73.7,27.6,29.53,SSW,199,18.0,36.0,18,0.00,,,0.00,VWS V14.01,2013-04-05 22:58:00,
2013-04-05 18:00:00,73.5,28.8,29.53,SSW,206,24.0,36.0,19,0.00,,,0.00,VWS V14.01,2013-04-05 23:00:00,
2013-04-05 18:03:00,73.3,28.6,29.53,South,182,16.0,26.0,19,0.00,,,0.00,VWS V14.01,2013-04-05 23:03:00,
2013-04-05 18:08:00,73.0,28.3,29.53,South,188,25.0,33.0,19,0.00,,,0.00,VWS V14.01,2013-04-05 23:08:00,
2013-04-05 18:13:00,72.8,28.2,29.53,SSW,200,24.0,33.0,19,0.00,,,0.00,VWS V14.01,2013-04-05 23:13:00,
2013-04-05 18:15:00,72.7,30.5,29.54,SSW,210,17.0,33.0,21,0.00,,,0.00,VWS V14.01,2013-04-05 23:15:00,
2013-04-05 18:18:00,72.7,29.4,29.54,SSW,200,19.0,19.0,20,0.00,,,0.00,VWS V14.01,2013-04-05 23:18:00,
2013-04-05 18:23:00,72.7,29.4,29.54,SSW,202,15.0,21.0,20,0.00,,,0.00,VWS V14.01,2013-04-05 23:23:00,
2013-04-05 18:28:00,72.8,29.4,29.54,SW,217,14.0,21.0,20,0.00,,,0.00,VWS V14.01,2013-04-05 23:28:00,
2013-04-05 18:30:00,72.8,28.2,29.54,SSW,195,12.0,21.0,19,0.00,,,0.00,VWS V14.01,2013-04-05 23:30:00,
2013-04-05 18:33:00,72.8,28.2,29.54,South,191,14.0,14.0,19,0.00,,,0.00,VWS V14.01,2013-04-05 23:33:00,
2013-04-05 18:38:00,72.7,30.5,29.54,SSW,195,11.0,17.0,21,0.00,,,0.00,VWS V14.01,2013-04-05 23:38:00,
2013-04-05 18:43:00,72.1,33.3,29.54,SSE,168,17.0,27.0,24,0.00,,,0.00,VWS V14.01,2013-04-05 23:43:00,
2013-04-05 18:45:00,70.8,35.2,29.54,South,174,6.0,27.0,27,0.00,,,0.00,VWS V14.01,2013-04-05 23:45:00,
2013-04-05 18:48:00,70.6,35.0,29.54,South,188,7.0,12.0,27,0.00,,,0.00,VWS V14.01,2013-04-05 23:48:00,
2013-04-05 18:53:00,69.6,35.1,29.54,South,174,7.0,14.0,28,0.00,,,0.00,VWS V14.01,2013-04-05 23:53:00,
2013-04-05 18:58:00,69.1,36.4,29.54,SSE,165,7.0,18.0,30,0.00,,,0.00,VWS V14.01,2013-04-05 23:58:00,
2013-04-05 19:00:00,68.8,36.1,29.54,South,171,6.0,18.0,30,0.00,,,0.00,VWS V14.01,2013-04-06 00:00:00,
2013-04-05 19:03:00,68.6,36.8,29.54,South,189,6.0,8.0,31,0.00,,,0.00,VWS V14.01,2013-04-06 00:03:00,
2013-04-05 19:08:00,68.4,36.6,29.54,South,172,5.0,17.0,31,0.00,,,0.00,VWS V14.01,2013-04-06 00:08:00,
2013-04-05 19:13:00,68.1,37.9,29.54,SSE,155,8.0,17.0,33,0.00,,,0.00,VWS V14.01,2013-04-06 00:13:00,
2013-04-05 19:15:00,67.9,37.0,29.53,South,171,9.0,17.0,32,0.00,,,0.00,VWS V14.01,2013-04-06 00:15:00,
2013-04-05 19:18:00,67.9,35.3,29.53,South,181,7.0,13.0,30,0.00,,,0.00,VWS V14.01,2013-04-06 00:18:00,
2013-04-05 19:23:00,67.8,36.9,29.53,SSE,161,10.0,13.0,32,0.00,,,0.00,VWS V14.01,2013-04-06 00:23:00,
2013-04-05 19:28:00,67.9,37.0,29.53,SSE,164,8.0,19.0,32,0.00,,,0.00,VWS V14.01,2013-04-06 00:28:00,
2013-04-05 19:30:00,67.8,36.9,29.53,SSW,196,13.0,19.0,32,0.00,,,0.00,VWS V14.01,2013-04-06 00:30:00,
2013-04-05 19:33:00,67.8,36.9,29.53,South,182,13.0,13.0,32,0.00,,,0.00,VWS V14.01,2013-04-06 00:33:00,
2013-04-05 19:38:00,67.6,36.7,29.53,South,182,10.0,20.0,32,0.00,,,0.00,VWS V14.01,2013-04-06 00:38:00,
2013-04-05 19:43:00,67.3,37.2,29.53,South,172,7.0,20.0,33,0.00,,,0.00,VWS V14.01,2013-04-06 00:43:00,
2013-04-05 19:45:00,66.9,38.4,29.53,South,178,6.0,20.0,35,0.00,,,0.00,VWS V14.01,2013-04-06 00:45:00,
2013-04-05 19:48:00,66.8,37.6,29.53,South,176,7.0,7.0,34,0.00,,,0.00,VWS V14.01,2013-04-06 00:48:00,
2013-04-05 19:53:00,66.1,37.7,29.53,South,169,10.0,11.0,35,0.00,,,0.00,VWS V14.01,2013-04-06 00:53:00,
2013-04-05 19:58:00,65.8,35.9,29.53,South,185,10.0,13.0,33,0.00,,,0.00,VWS V14.01,2013-04-06 00:58:00,
2013-04-05 20:00:00,65.5,37.2,29.53,SSW,196,12.0,14.0,35,0.00,,,0.00,VWS V14.01,2013-04-06 01:00:00,
2013-04-05 20:03:00,65.5,37.2,29.53,South,175,8.0,12.0,35,0.00,,,0.00,VWS V14.01,2013-04-06 01:03:00,
2013-04-05 20:08:00,65.3,37.0,29.53,South,176,5.0,14.0,35,0.00,,,0.00,VWS V14.01,2013-04-06 01:08:00,
2013-04-05 20:13:00,65.0,36.7,29.53,SSE,165,10.0,14.0,35,0.00,,,0.00,VWS V14.01,2013-04-06 01:13:00,
2013-04-05 20:15:00,65.0,36.7,29.51,South,189,8.0,15.0,35,0.00,,,0.00,VWS V14.01,2013-04-06 01:15:00,
2013-04-05 20:18:00,65.0,36.7,29.51,South,171,10.0,10.0,35,0.00,,,0.00,VWS V14.01,2013-04-06 01:18:00,
2013-04-05 20:23:00,65.0,37.4,29.51,South,186,10.0,17.0,36,0.00,,,0.00,VWS V14.01,2013-04-06 01:23:00,
2013-04-05 20:28:00,65.0,36.7,29.51,South,191,13.0,17.0,35,0.00,,,0.00,VWS V14.01,2013-04-06 01:28:00,
2013-04-05 20:30:00,64.8,37.9,29.51,South,191,10.0,17.0,37,0.00,,,0.00,VWS V14.01,2013-04-06 01:30:00,
2013-04-05 20:33:00,64.8,37.2,29.51,South,176,12.0,14.0,36,0.00,,,0.00,VWS V14.01,2013-04-06 01:33:00,
2013-04-05 20:38:00,64.8,37.2,29.51,South,181,16.0,19.0,36,0.00,,,0.00,VWS V14.01,2013-04-06 01:38:00,
2013-04-05 20:43:00,64.5,37.7,29.51,SSW,192,7.0,19.0,37,0.00,,,0.00,VWS V14.01,2013-04-06 01:43:00,
2013-04-05 20:45:00,64.2,36.7,29.51,South,188,12.0,19.0,36,0.00,,,0.00,VWS V14.01,2013-04-06 01:45:00,
2013-04-05 20:48:00,64.2,37.4,29.51,SSE,167,11.0,17.0,37,0.00,,,0.00,VWS V14.01,2013-04-06 01:48:00,
2013-04-05 20:53:00,64.0,37.9,29.51,South,184,9.0,18.0,38,0.00,,,0.00,VWS V14.01,2013-04-06 01:53:00,
2013-04-05 20:58:00,63.7,38.3,29.51,SSE,167,12.0,18.0,39,0.00,,,0.00,VWS V14.01,2013-04-06 01:58:00,
2013-04-05 21:00:00,63.4,38.0,29.51,South,179,10.0,18.0,39,0.00,,,0.00,VWS V14.01,2013-04-06 02:00:00,
2013-04-05 21:03:00,63.4,37.4,29.51,South,171,7.0,13.0,38,0.00,,,0.00,VWS V14.01,2013-04-06 02:03:00,
2013-04-05 21:08:00,62.9,38.2,29.51,South,175,8.0,14.0,40,0.00,,,0.00,VWS V14.01,2013-04-06 02:08:00,
2013-04-05 21:13:00,62.4,38.4,29.51,South,176,9.0,19.0,41,0.00,,,0.00,VWS V14.01,2013-04-06 02:13:00,
2013-04-05 21:15:00,62.1,38.8,29.50,South,184,7.0,19.0,42,0.00,,,0.00,VWS V14.01,2013-04-06 02:15:00,
2013-04-05 21:18:00,62.0,39.3,29.50,South,182,11.0,11.0,43,0.00,,,0.00,VWS V14.01,2013-04-06 02:18:00,
2013-04-05 21:23:00,61.5,38.8,29.50,SSE,164,10.0,11.0,43,0.00,,,0.00,VWS V14.01,2013-04-06 02:23:00,
2013-04-05 21:28:00,61.3,39.2,29.50,South,178,7.0,12.0,44,0.00,,,0.00,VWS V14.01,2013-04-06 02:28:00,
2013-04-05 21:30:00,61.2,39.1,29.50,SSE,164,6.0,12.0,44,0.00,,,0.00,VWS V14.01,2013-04-06 02:30:00,
2013-04-05 21:33:00,61.0,39.0,29.50,South,172,6.0,8.0,44,0.00,,,0.00,VWS V14.01,2013-04-06 02:33:00,
2013-04-05 21:38:00,61.0,39.0,29.50,South,171,6.0,13.0,44,0.00,,,0.00,VWS V14.01,2013-04-06 02:38:00,
2013-04-05 21:43:00,60.7,40.4,29.50,SSE,167,6.0,13.0,47,0.00,,,0.00,VWS V14.01,2013-04-06 02:43:00,
2013-04-05 21:45:00,60.5,39.1,29.52,South,184,7.0,13.0,45,0.00,,,0.00,VWS V14.01,2013-04-06 02:45:00,
2013-04-05 21:48:00,60.5,39.6,29.52,South,181,10.0,10.0,46,0.00,,,0.00,VWS V14.01,2013-04-06 02:48:00,
2013-04-05 21:53:00,60.5,39.6,29.52,SSW,193,7.0,17.0,46,0.00,,,0.00,VWS V14.01,2013-04-06 02:53:00,
2013-04-05 21:58:00,60.5,40.7,29.52,South,182,10.0,17.0,48,0.00,,,0.00,VWS V14.01,2013-04-06 02:58:00,
2013-04-05 22:00:00,60.4,40.1,29.51,South,172,8.0,17.0,47,0.00,,,0.00,VWS V14.01,2013-04-06 03:00:00,
2013-04-05 22:03:00,60.2,40.5,29.51,SSE,162,7.0,10.0,48,0.00,,,0.00,VWS V14.01,2013-04-06 03:03:00,
2013-04-05 22:08:00,60.1,40.4,29.51,SSE,168,7.0,12.0,48,0.00,,,0.00,VWS V14.01,2013-04-06 03:08:00,
2013-04-05 22:13:00,59.9,39.6,29.51,South,176,8.0,12.0,47,0.00,,,0.00,VWS V14.01,2013-04-06 03:13:00,
2013-04-05 22:15:00,59.9,41.2,29.51,SSE,168,7.0,14.0,50,0.00,,,0.00,VWS V14.01,2013-04-06 03:15:00,
2013-04-05 22:18:00,59.9,40.7,29.51,South,172,7.0,11.0,49,0.00,,,0.00,VWS V14.01,2013-04-06 03:18:00,
2013-04-05 22:23:00,59.6,39.9,29.51,South,179,7.0,11.0,48,0.00,,,0.00,VWS V14.01,2013-04-06 03:23:00,
2013-04-05 22:28:00,59.5,41.4,29.51,SSE,162,8.0,14.0,51,0.00,,,0.00,VWS V14.01,2013-04-06 03:28:00,
2013-04-05 22:30:00,59.3,40.7,29.50,South,184,8.0,14.0,50,0.00,,,0.00,VWS V14.01,2013-04-06 03:30:00,
2013-04-05 22:34:00,59.3,40.2,29.50,South,184,7.0,9.0,49,0.00,,,0.00,VWS V14.01,2013-04-06 03:34:00,
2013-04-05 22:39:00,59.2,41.1,29.50,South,176,8.0,18.0,51,0.00,,,0.00,VWS V14.01,2013-04-06 03:39:00,
2013-04-05 22:44:00,58.9,40.8,29.50,SSE,165,6.0,18.0,51,0.00,,,0.00,VWS V14.01,2013-04-06 03:44:00,
2013-04-05 22:45:00,58.7,41.6,29.50,SSE,164,8.0,18.0,53,0.00,,,0.00,VWS V14.01,2013-04-06 03:45:00,
2013-04-05 22:49:00,58.6,41.0,29.50,South,172,7.0,10.0,52,0.00,,,0.00,VWS V14.01,2013-04-06 03:49:00,
2013-04-05 22:54:00,58.1,41.6,29.50,South,188,7.0,12.0,54,0.00,,,0.00,VWS V14.01,2013-04-06 03:54:00,
2013-04-05 22:59:00,58.0,41.0,29.50,SSE,162,7.0,12.0,53,0.00,,,0.00,VWS V14.01,2013-04-06 03:59:00,
2013-04-05 23:00:00,57.8,41.8,29.50,South,169,7.0,12.0,55,0.00,,,0.00,VWS V14.01,2013-04-06 04:00:00,
2013-04-05 23:05:00,57.6,41.1,29.50,South,189,7.0,10.0,54,0.00,,,0.00,VWS V14.01,2013-04-06 04:05:00,
2013-04-05 23:10:00,57.3,41.3,29.50,SSE,164,5.0,10.0,55,0.00,,,0.00,VWS V14.01,2013-04-06 04:10:00,
2013-04-05 23:15:00,56.9,41.4,29.50,SSE,165,7.0,10.0,56,0.00,,,0.00,VWS V14.01,2013-04-06 04:15:00,
2013-04-05 23:20:00,56.6,41.6,29.48,South,178,6.0,11.0,57,0.00,,,0.00,VWS V14.01,2013-04-06 04:20:00,
2013-04-05 23:25:00,56.3,40.8,29.48,South,169,7.0,11.0,56,0.00,,,0.00,VWS V14.01,2013-04-06 04:25:00,
2013-04-05 23:30:00,56.2,42.1,29.48,SSE,165,7.0,11.0,59,0.00,,,0.00,VWS V14.01,2013-04-06 04:30:00,
2013-04-05 23:36:00,56.0,41.5,29.49,SSE,168,3.0,9.0,58,0.00,,,0.00,VWS V14.01,2013-04-06 04:36:00,
2013-04-05 23:41:00,55.7,42.0,29.49,SSE,155,5.0,9.0,60,0.00,,,0.00,VWS V14.01,2013-04-06 04:41:00,
2013-04-05 23:45:00,55.6,41.1,29.48,SSE,164,5.0,9.0,58,0.00,,,0.00,VWS V14.01,2013-04-06 04:45:00,
2013-04-05 23:46:00,55.6,41.5,29.49,SSE,164,5.0,9.0,59,0.00,,,0.00,VWS V14.01,2013-04-06 04:46:00,
2013-04-05 23:51:00,55.4,41.8,29.48,South,182,5.0,7.0,60,0.00,,,0.00,VWS V14.01,2013-04-06 04:51:00,
2013-04-05 23:56:00,55.3,42.1,29.48,South,182,2.0,7.0,61,0.00,,,0.00,VWS V14.01,2013-04-06 04:56:00,